Time;durP1;ratioP1;P1;durP2;ratioP2;P2;SDS_P1;SDS_P2;PMS_P1;PMS_P2;Temp;Humidity;BMP_temperature;BMP_pressure;BME280_temperature;BME280_humidity;BME280_pressure;Samples;Min_cycle;Max_cycle;Signal;HPM_P1;HPM_P2
2022/12/09 00:00:30;;;;;;;28.27;12.37;;;;;;;;;;4971412;28;20529;-83
2022/12/09 00:02:57;;;;;;;37.40;14.50;;;;;;;;;;4973565;28;20027;-83
2022/12/09 00:05:23;;;;;;;36.83;13.67;;;;;;;;;;4972222;28;20026;-84
2022/12/09 00:07:48;;;;;;;25.77;12.80;;;;;;;;;;4973096;28;20026;-85
2022/12/09 00:10:14;;;;;;;29.33;13.70;;;;;;;;;;4973163;28;20030;-83
2022/12/09 00:12:39;;;;;;;29.57;13.57;;;;;;;;;;4973074;28;20069;-83
2022/12/09 00:15:05;;;;;;;26.77;13.30;;;;;;;;;;4971306;28;20415;-83
2022/12/09 00:17:31;;;;;;;34.37;13.43;;;;;;;;;;4971927;28;20027;-83
2022/12/09 00:19:56;;;;;;;28.23;12.87;;;;;;;;;;4973765;28;20027;-82
2022/12/09 00:22:22;;;;;;;33.07;14.03;;;;;;;;;;4973221;28;20106;-83
2022/12/09 00:24:47;;;;;;;35.83;14.67;;;;;;;;;;4987924;28;20031;-82
2022/12/09 00:27:12;;;;;;;34.97;14.23;;;;;;;;;;4972629;28;20027;-83
2022/12/09 00:29:38;;;;;;;36.10;14.87;;;;;;;;;;4972549;28;20065;-83
2022/12/09 00:32:04;;;;;;;31.40;14.30;;;;;;;;;;4973404;28;20022;-81
2022/12/09 00:34:29;;;;;;;29.60;13.23;;;;;;;;;;4973413;28;20034;-82
2022/12/09 00:36:54;;;;;;;29.90;12.73;;;;;;;;;;4974045;28;20018;-83
2022/12/09 00:39:20;;;;;;;29.03;12.30;;;;;;;;;;4972240;28;20038;-81
2022/12/09 00:41:47;;;;;;;28.17;13.70;;;;;;;;;;4971843;28;20037;-82
2022/12/09 00:44:13;;;;;;;29.93;13.53;;;;;;;;;;4989133;28;20030;-83
2022/12/09 00:46:38;;;;;;;35.77;13.20;;;;;;;;;;4972447;28;20113;-82
2022/12/09 00:49:04;;;;;;;33.00;13.33;;;;;;;;;;4973593;28;20085;-81
2022/12/09 00:51:29;;;;;;;29.53;12.70;;;;;;;;;;4988297;28;20031;-83
2022/12/09 00:53:55;;;;;;;37.83;15.00;;;;;;;;;;4987629;28;20035;-83
2022/12/09 00:56:27;;;;;;;28.47;13.40;;;;;;;;;;4973393;28;20327;-82
2022/12/09 00:58:53;;;;;;;29.13;13.23;;;;;;;;;;4971717;28;20098;-81
2022/12/09 01:01:19;;;;;;;27.67;12.77;;;;;;;;;;4971165;28;20027;-83
2022/12/09 01:03:44;;;;;;;29.63;13.87;;;;;;;;;;4971521;28;20085;-83
2022/12/09 01:06:13;;;;;;;33.53;13.87;;;;;;;;;;4970523;28;20050;-82
2022/12/09 01:08:39;;;;;;;32.90;13.13;;;;;;;;;;4972775;28;20433;-83
2022/12/09 01:11:16;;;;;;;30.87;14.67;;;;;;;;;;4971790;28;20023;-83
2022/12/09 01:13:42;;;;;;;30.53;12.97;;;;;;;;;;4972190;28;20031;-83
2022/12/09 01:16:23;;;;;;;32.90;14.93;;;;;;;;;;4972782;28;20047;-83
2022/12/09 01:18:50;;;;;;;41.28;15.32;;;;;;;;;;4971971;28;20529;-83
2022/12/09 01:21:16;;;;;;;39.00;15.33;;;;;;;;;;4973836;28;20046;-83
2022/12/09 01:23:41;;;;;;;28.77;13.90;;;;;;;;;;4973097;28;20023;-84
2022/12/09 01:26:07;;;;;;;31.13;13.40;;;;;;;;;;4973050;28;20034;-83
2022/12/09 01:28:35;;;;;;;32.87;15.07;;;;;;;;;;4973778;28;20039;-83
2022/12/09 01:31:12;;;;;;;32.33;15.73;;;;;;;;;;4971315;28;20054;-84
2022/12/09 01:33:38;;;;;;;34.33;14.93;;;;;;;;;;4971350;28;20038;-83
2022/12/09 01:36:08;;;;;;;37.83;14.70;;;;;;;;;;4971707;28;20370;-83
2022/12/09 01:38:35;;;;;;;36.53;15.57;;;;;;;;;;4972401;28;20030;-85
2022/12/09 01:41:01;;;;;;;34.70;15.50;;;;;;;;;;4986868;28;20336;-82
2022/12/09 01:43:26;;;;;;;37.53;14.97;;;;;;;;;;4986786;28;20018;-82
2022/12/09 01:45:52;;;;;;;31.47;14.63;;;;;;;;;;4986951;28;20121;-82
2022/12/09 01:48:22;;;;;;;33.97;15.10;;;;;;;;;;4987198;28;20030;-84
2022/12/09 01:50:52;;;;;;;31.07;15.13;;;;;;;;;;4986465;28;20105;-81
2022/12/09 01:53:21;;;;;;;31.40;14.33;;;;;;;;;;4972850;28;20332;-82
2022/12/09 01:55:47;;;;;;;37.10;15.63;;;;;;;;;;4974249;28;20027;-82
2022/12/09 01:58:14;;;;;;;36.97;14.93;;;;;;;;;;4976333;28;20023;-82
2022/12/09 02:00:40;;;;;;;28.27;14.10;;;;;;;;;;4974827;28;20043;-82
2022/12/09 02:03:06;;;;;;;39.83;15.93;;;;;;;;;;4990374;28;20466;-83
2022/12/09 02:05:32;;;;;;;30.60;14.10;;;;;;;;;;4973726;28;20031;-82
2022/12/09 02:07:58;;;;;;;37.27;16.23;;;;;;;;;;4975039;28;20390;-82
2022/12/09 02:10:24;;;;;;;36.10;15.13;;;;;;;;;;4975403;28;20027;-83
2022/12/09 02:12:55;;;;;;;41.10;17.10;;;;;;;;;;4975044;28;20113;-83
2022/12/09 02:15:24;;;;;;;37.73;15.83;;;;;;;;;;4973807;28;20053;-82
2022/12/09 02:17:54;;;;;;;37.10;14.57;;;;;;;;;;4990341;28;20409;-82
2022/12/09 02:20:37;;;;;;;39.33;16.50;;;;;;;;;;4990051;28;20027;-83
2022/12/09 02:23:07;;;;;;;37.87;15.77;;;;;;;;;;4969169;28;20087;-83
2022/12/09 02:25:59;;;;;;;36.70;15.30;;;;;;;;;;4971075;28;20159;-83
2022/12/09 02:28:34;;;;;;;36.58;16.05;;;;;;;;;;4956087;28;20031;-83
2022/12/09 02:31:27;;;;;;;40.10;17.03;;;;;;;;;;4955713;28;20054;-82
2022/12/09 02:33:56;;;;;;;33.07;14.97;;;;;;;;;;4954651;29;20029;-83
2022/12/09 02:36:24;;;;;;;36.00;15.60;;;;;;;;;;4954524;29;20034;-83
2022/12/09 02:38:52;;;;;;;35.87;15.47;;;;;;;;;;4970771;28;20111;-82
2022/12/09 02:41:31;;;;;;;40.03;16.67;;;;;;;;;;4969940;28;20055;-82
2022/12/09 02:44:06;;;;;;;32.53;14.30;;;;;;;;;;4955772;28;20031;-81
2022/12/09 02:46:34;;;;;;;43.10;15.53;;;;;;;;;;4970413;28;20392;-83
2022/12/09 02:49:00;;;;;;;32.20;15.00;;;;;;;;;;4956262;28;20031;-83
2022/12/09 02:51:29;;;;;;;33.67;14.93;;;;;;;;;;4971829;28;20038;-84
2022/12/09 02:54:02;;;;;;;32.90;14.13;;;;;;;;;;4970562;28;20027;-80
2022/12/09 02:56:28;;;;;;;31.53;13.97;;;;;;;;;;4953735;29;20046;-84
2022/12/09 02:58:54;;;;;;;37.17;16.10;;;;;;;;;;4970147;28;20031;-82
2022/12/09 03:01:44;;;;;;;36.53;17.13;;;;;;;;;;4970206;28;20061;-83
2022/12/09 03:04:19;;;;;;;36.90;14.47;;;;;;;;;;4954545;28;20214;-83
2022/12/09 03:06:52;;;;;;;35.20;14.70;;;;;;;;;;4955359;28;20117;-83
2022/12/09 03:09:23;;;;;;;39.43;16.43;;;;;;;;;;4955070;28;20038;-82
2022/12/09 03:11:50;;;;;;;34.97;15.63;;;;;;;;;;4969784;28;20368;-83
2022/12/09 03:14:25;;;;;;;40.00;16.63;;;;;;;;;;4970222;28;20177;-83
2022/12/09 03:17:18;;;;;;;38.43;17.30;;;;;;;;;;4955795;28;20094;-83
2022/12/09 03:19:46;;;;;;;;;;;;;;;;;;4954193;29;20364;-83
2022/12/09 03:22:16;;;;;;;32.90;14.13;;;;;;;;;;4954716;28;19949;-83
2022/12/09 03:24:47;;;;;;;34.20;15.17;;;;;;;;;;4969840;28;20105;-82
2022/12/09 03:27:19;;;;;;;38.27;16.73;;;;;;;;;;4969542;28;20020;-84
2022/12/09 03:29:47;;;;;;;34.10;15.75;;;;;;;;;;4954255;28;20479;-84
2022/12/09 03:32:14;;;;;;;37.83;17.20;;;;;;;;;;4969836;28;20467;-83
2022/12/09 03:34:43;;;;;;;40.50;17.13;;;;;;;;;;4969380;28;20031;-83
2022/12/09 03:37:14;;;;;;;35.10;16.03;;;;;;;;;;4969656;28;20031;-82
2022/12/09 03:39:41;;;;;;;36.30;16.33;;;;;;;;;;4953785;29;20053;-82
2022/12/09 03:42:14;;;;;;;42.20;16.37;;;;;;;;;;4953012;29;20027;-83
2022/12/09 03:44:53;;;;;;;42.23;16.73;;;;;;;;;;4954592;28;20031;-83
2022/12/09 03:47:19;;;;;;;39.47;18.20;;;;;;;;;;4954262;28;20070;-83
2022/12/09 03:49:45;;;;;;;38.70;16.50;;;;;;;;;;4955543;28;20079;-83
2022/12/09 03:52:25;;;;;;;38.30;16.13;;;;;;;;;;4954920;28;20039;-81
2022/12/09 03:54:57;;;;;;;31.50;15.00;;;;;;;;;;4956879;28;20035;-82
2022/12/09 03:57:24;;;;;;;;;;;;;;;;;;4957049;28;20387;-82
2022/12/09 04:00:00;;;;;;;41.03;14.47;;;;;;;;;;4955047;29;20016;-83
2022/12/09 04:02:26;;;;;;;30.30;13.70;;;;;;;;;;4955680;28;20436;-81
2022/12/09 04:04:52;;;;;;;33.40;14.33;;;;;;;;;;4953091;29;20027;-83
2022/12/09 04:07:18;;;;;;;32.17;15.20;;;;;;;;;;4953125;29;20491;-83
2022/12/09 04:09:43;;;;;;;29.47;13.90;;;;;;;;;;4952967;29;20042;-83
2022/12/09 04:12:09;;;;;;;35.97;14.23;;;;;;;;;;4953728;29;20038;-82
2022/12/09 04:14:35;;;;;;;32.07;13.03;;;;;;;;;;4952676;29;20424;-83
2022/12/09 04:17:01;;;;;;;37.33;15.10;;;;;;;;;;4968302;28;20034;-83
2022/12/09 04:19:26;;;;;;;35.73;15.27;;;;;;;;;;4953771;28;20055;-83
2022/12/09 04:21:52;;;;;;;38.47;15.70;;;;;;;;;;4954244;28;20031;-83
2022/12/09 04:24:19;;;;;;;32.90;15.27;;;;;;;;;;4953787;28;20031;-82
2022/12/09 04:26:44;;;;;;;33.23;14.93;;;;;;;;;;4954646;28;20134;-83
2022/12/09 04:29:11;;;;;;;36.10;14.70;;;;;;;;;;4954081;28;20403;-82
2022/12/09 04:31:38;;;;;;;40.70;17.57;;;;;;;;;;4952921;29;20039;-81
2022/12/09 04:34:03;;;;;;;35.83;16.50;;;;;;;;;;4951627;29;20027;-84
2022/12/09 04:36:29;;;;;;;32.00;15.13;;;;;;;;;;4956601;28;20460;-82
2022/12/09 04:38:54;;;;;;;41.37;16.93;;;;;;;;;;4972815;28;20105;-83
2022/12/09 04:41:22;;;;;;;39.00;16.57;;;;;;;;;;4971014;28;20035;-83
2022/12/09 04:43:47;;;;;;;39.43;15.17;;;;;;;;;;4955157;28;20034;-83
2022/12/09 04:46:15;;;;;;;32.03;14.33;;;;;;;;;;4973352;28;20030;-83
2022/12/09 04:48:41;;;;;;;36.90;15.03;;;;;;;;;;4971281;28;20030;-83
2022/12/09 04:51:12;;;;;;;35.80;14.57;;;;;;;;;;4971300;28;20029;-83
2022/12/09 04:53:37;;;;;;;37.20;15.43;;;;;;;;;;4971416;28;20022;-82
2022/12/09 04:56:06;;;;;;;41.13;16.87;;;;;;;;;;4972858;28;20181;-84
2022/12/09 04:58:32;;;;;;;29.53;14.73;;;;;;;;;;4971255;28;20041;-84
2022/12/09 05:00:58;;;;;;;30.93;14.90;;;;;;;;;;4972123;28;20061;-84
2022/12/09 05:03:24;;;;;;;29.93;13.87;;;;;;;;;;4971006;28;20058;-82
2022/12/09 05:05:50;;;;;;;32.50;14.53;;;;;;;;;;4971612;28;20042;-82
2022/12/09 05:08:15;;;;;;;34.97;15.33;;;;;;;;;;4971034;28;20027;-85
2022/12/09 05:10:45;;;;;;;33.00;14.57;;;;;;;;;;4987464;28;20117;-83
2022/12/09 05:13:11;;;;;;;35.60;15.30;;;;;;;;;;4972175;28;20058;-83
2022/12/09 05:15:37;;;;;;;38.37;15.87;;;;;;;;;;4971567;28;20061;-83
2022/12/09 05:18:03;;;;;;;29.27;13.77;;;;;;;;;;4972054;28;20129;-83
2022/12/09 05:20:28;;;;;;;33.47;15.03;;;;;;;;;;4972685;28;20061;-81
2022/12/09 05:22:55;;;;;;;39.00;16.03;;;;;;;;;;4971702;28;20114;-84
2022/12/09 05:25:21;;;;;;;36.00;15.47;;;;;;;;;;4973588;28;20031;-83
2022/12/09 05:27:47;;;;;;;34.03;15.27;;;;;;;;;;4973490;28;20351;-83
2022/12/09 05:30:13;;;;;;;37.27;14.87;;;;;;;;;;4976932;28;20027;-84
2022/12/09 05:32:38;;;;;;;36.00;14.73;;;;;;;;;;4972323;28;20442;-84
2022/12/09 05:35:04;;;;;;;42.23;15.17;;;;;;;;;;4969719;28;20444;-80
2022/12/09 05:37:30;;;;;;;38.63;15.00;;;;;;;;;;4968647;28;20027;-83
2022/12/09 05:39:55;;;;;;;34.67;14.23;;;;;;;;;;4985865;28;20038;-82
2022/12/09 05:42:21;;;;;;;41.13;18.63;;;;;;;;;;4971577;28;20070;-82
2022/12/09 05:44:46;;;;;;;34.00;15.27;;;;;;;;;;4983468;28;20030;-79
2022/12/09 05:47:12;;;;;;;39.87;15.60;;;;;;;;;;4983643;28;20023;-83
2022/12/09 05:49:37;;;;;;;40.70;15.53;;;;;;;;;;4977349;28;20029;-83
2022/12/09 05:52:04;;;;;;;33.77;15.20;;;;;;;;;;4977291;28;20114;-80
2022/12/09 05:54:29;;;;;;;42.63;15.67;;;;;;;;;;4976694;28;20113;-84
2022/12/09 05:56:56;;;;;;;35.37;15.43;;;;;;;;;;4973806;28;20606;-81
2022/12/09 05:59:22;;;;;;;36.63;16.63;;;;;;;;;;4975444;28;20216;-81
2022/12/09 06:01:48;;;;;;;36.83;15.97;;;;;;;;;;4975703;28;20108;-82
2022/12/09 06:04:14;;;;;;;38.37;16.83;;;;;;;;;;4975719;28;20031;-82
2022/12/09 06:06:40;;;;;;;41.83;15.93;;;;;;;;;;4969423;28;20415;-84
2022/12/09 06:09:10;;;;;;;34.57;15.40;;;;;;;;;;4990306;28;20065;-82
2022/12/09 06:11:36;;;;;;;34.57;15.83;;;;;;;;;;4974517;28;20089;-79
2022/12/09 06:14:02;;;;;;;33.97;15.40;;;;;;;;;;4973145;28;20340;-79
2022/12/09 06:16:28;;;;;;;40.67;14.87;;;;;;;;;;4971882;28;20030;-78
2022/12/09 06:18:53;;;;;;;33.17;15.63;;;;;;;;;;4983020;28;20201;-79
2022/12/09 06:21:19;;;;;;;40.20;16.60;;;;;;;;;;4973979;28;20141;-84
2022/12/09 06:23:45;;;;;;;34.30;14.63;;;;;;;;;;4969154;28;20027;-83
2022/12/09 06:26:20;;;;;;;36.63;15.60;;;;;;;;;;4986918;28;20037;-82
2022/12/09 06:28:46;;;;;;;40.30;15.87;;;;;;;;;;4969983;28;20142;-82
2022/12/09 06:31:11;;;;;;;40.77;16.30;;;;;;;;;;4972300;28;20550;-82
2022/12/09 06:33:37;;;;;;;35.93;15.57;;;;;;;;;;4970744;28;20031;-85
2022/12/09 06:36:03;;;;;;;38.90;16.97;;;;;;;;;;4975367;28;20553;-80
2022/12/09 06:38:29;;;;;;;38.77;16.60;;;;;;;;;;4986671;28;20458;-84
2022/12/09 06:40:55;;;;;;;53.67;19.23;;;;;;;;;;4967363;28;20038;-82
2022/12/09 06:43:21;;;;;;;44.40;19.40;;;;;;;;;;4973014;28;20038;-85
2022/12/09 06:45:46;;;;;;;38.13;16.87;;;;;;;;;;4969277;28;20418;-85
2022/12/09 06:48:12;;;;;;;43.40;19.13;;;;;;;;;;4985780;28;20450;-85
2022/12/09 06:50:38;;;;;;;44.97;16.93;;;;;;;;;;4987610;28;20022;-86
2022/12/09 06:53:04;;;;;;;34.93;15.83;;;;;;;;;;4977306;28;20034;-83
2022/12/09 06:55:29;;;;;;;38.03;16.77;;;;;;;;;;4967545;28;20418;-81
2022/12/09 06:57:57;;;;;;;38.93;16.60;;;;;;;;;;4966934;28;20028;-79
2022/12/09 07:00:22;;;;;;;37.30;15.50;;;;;;;;;;4966617;28;20046;-85
2022/12/09 07:02:48;;;;;;;39.27;17.53;;;;;;;;;;4973782;28;20046;-83
2022/12/09 07:05:13;;;;;;;41.00;15.87;;;;;;;;;;4970009;28;20042;-81
2022/12/09 07:07:39;;;;;;;43.47;15.77;;;;;;;;;;4968665;28;20031;-83
2022/12/09 07:10:06;;;;;;;38.10;16.73;;;;;;;;;;4974537;28;20041;-82
2022/12/09 07:12:33;;;;;;;35.73;16.53;;;;;;;;;;4972379;28;20101;-82
2022/12/09 07:14:58;;;;;;;47.67;17.53;;;;;;;;;;4970762;28;20031;-81
2022/12/09 07:17:24;;;;;;;46.97;18.40;;;;;;;;;;4975547;28;20484;-81
2022/12/09 07:19:50;;;;;;;36.10;17.20;;;;;;;;;;4964650;28;20307;-82
2022/12/09 07:22:16;;;;;;;40.33;17.23;;;;;;;;;;4988564;28;20447;-81
2022/12/09 07:24:42;;;;;;;45.83;17.57;;;;;;;;;;4987547;28;20034;-82
2022/12/09 07:27:09;;;;;;;42.07;19.60;;;;;;;;;;4988855;28;20023;-81
2022/12/09 07:29:35;;;;;;;45.80;17.93;;;;;;;;;;4982818;28;20387;-82
2022/12/09 07:32:02;;;;;;;41.83;17.67;;;;;;;;;;4983541;28;20470;-85
2022/12/09 07:34:27;;;;;;;43.93;17.93;;;;;;;;;;4972519;28;20031;-82
2022/12/09 07:36:53;;;;;;;38.67;17.57;;;;;;;;;;4974221;28;20123;-82
2022/12/09 07:39:20;;;;;;;40.93;19.80;;;;;;;;;;4974913;28;20035;-81
2022/12/09 07:41:50;;;;;;;40.17;19.77;;;;;;;;;;4975203;28;20478;-82
2022/12/09 07:44:15;;;;;;;45.10;18.73;;;;;;;;;;4975955;28;20061;-82
2022/12/09 07:46:41;;;;;;;39.67;15.83;;;;;;;;;;5003676;28;20108;-86
2022/12/09 07:49:07;;;;;;;42.50;17.50;;;;;;;;;;4977446;28;20030;-84
2022/12/09 07:51:32;;;;;;;41.00;18.67;;;;;;;;;;4975223;28;20446;-84
2022/12/09 07:53:58;;;;;;;42.37;18.03;;;;;;;;;;4971302;28;20046;-83
2022/12/09 07:56:24;;;;;;;42.70;16.37;;;;;;;;;;4969610;28;20031;-81
2022/12/09 07:58:52;;;;;;;46.20;18.67;;;;;;;;;;4977042;28;20444;-80
2022/12/09 08:01:25;;;;;;;45.50;17.90;;;;;;;;;;4988822;28;20034;-84
2022/12/09 08:03:51;;;;;;;39.97;17.17;;;;;;;;;;4969052;28;20430;-82
2022/12/09 08:06:19;;;;;;;40.13;17.63;;;;;;;;;;4970833;28;20057;-80
2022/12/09 08:08:45;;;;;;;45.83;21.23;;;;;;;;;;4972184;28;20038;-82
2022/12/09 08:11:17;;;;;;;44.17;17.70;;;;;;;;;;4971937;28;20027;-81
2022/12/09 08:13:43;;;;;;;43.95;17.88;;;;;;;;;;4974517;28;20030;-83
2022/12/09 08:16:13;;;;;;;37.47;17.07;;;;;;;;;;4970532;28;20370;-82
2022/12/09 08:18:38;;;;;;;44.97;19.00;;;;;;;;;;4967559;28;20050;-81
2022/12/09 08:21:06;;;;;;;41.10;16.50;;;;;;;;;;4972422;28;20374;-81
2022/12/09 08:23:32;;;;;;;33.57;16.53;;;;;;;;;;4986680;28;20034;-81
2022/12/09 08:25:58;;;;;;;35.00;15.53;;;;;;;;;;4972742;28;20038;-80
2022/12/09 08:28:24;;;;;;;40.30;17.90;;;;;;;;;;4973175;28;20042;-81
2022/12/09 08:30:50;;;;;;;37.97;15.73;;;;;;;;;;4971950;28;20036;-82
2022/12/09 08:33:16;;;;;;;35.00;16.37;;;;;;;;;;4973920;28;20093;-84
2022/12/09 08:35:42;;;;;;;41.10;18.00;;;;;;;;;;4973852;28;20053;-83
2022/12/09 08:38:08;;;;;;;37.87;17.10;;;;;;;;;;4971751;28;20054;-82
2022/12/09 08:40:34;;;;;;;46.23;19.90;;;;;;;;;;4971364;28;20057;-82
2022/12/09 08:42:59;;;;;;;40.63;18.40;;;;;;;;;;4970066;28;20039;-81
2022/12/09 08:45:25;;;;;;;42.30;19.20;;;;;;;;;;4986401;28;20022;-80
2022/12/09 08:47:50;;;;;;;43.57;18.97;;;;;;;;;;4971975;28;20092;-81
2022/12/09 08:50:16;;;;;;;42.93;17.47;;;;;;;;;;4971137;28;20030;-82
2022/12/09 08:52:42;;;;;;;39.73;17.07;;;;;;;;;;4990256;28;20134;-85
2022/12/09 08:55:08;;;;;;;42.80;18.07;;;;;;;;;;4994360;28;20030;-83
2022/12/09 08:57:34;;;;;;;46.80;19.37;;;;;;;;;;4974321;28;20026;-84
2022/12/09 09:00:00;;;;;;;39.20;18.93;;;;;;;;;;4991522;28;20140;-84
2022/12/09 09:02:26;;;;;;;45.43;19.77;;;;;;;;;;4987287;28;20034;-83
2022/12/09 09:04:51;;;;;;;47.60;17.27;;;;;;;;;;4971206;28;20035;-81
2022/12/09 09:07:17;;;;;;;49.57;18.77;;;;;;;;;;4970814;28;20073;-81
2022/12/09 09:09:42;;;;;;;41.53;19.33;;;;;;;;;;4971245;28;20037;-82
2022/12/09 09:12:08;;;;;;;45.07;20.40;;;;;;;;;;4973614;28;20103;-81
2022/12/09 09:14:34;;;;;;;43.80;18.23;;;;;;;;;;4972542;28;20050;-81
2022/12/09 09:16:59;;;;;;;53.47;24.77;;;;;;;;;;4984474;28;20023;-81
2022/12/09 09:19:26;;;;;;;45.37;18.37;;;;;;;;;;4984101;28;20073;-82
2022/12/09 09:21:54;;;;;;;39.47;17.70;;;;;;;;;;4972634;28;20026;-83
2022/12/09 09:24:21;;;;;;;41.47;18.63;;;;;;;;;;4973745;28;20137;-82
2022/12/09 09:26:48;;;;;;;43.40;18.70;;;;;;;;;;4968055;28;20060;-80
2022/12/09 09:29:16;;;;;;;49.80;22.23;;;;;;;;;;4953885;28;20371;-81
2022/12/09 09:31:42;;;;;;;37.40;18.27;;;;;;;;;;4968149;28;20476;-81
2022/12/09 09:34:08;;;;;;;43.17;18.40;;;;;;;;;;4985927;28;20443;-81
2022/12/09 09:36:36;;;;;;;39.63;17.00;;;;;;;;;;4971908;28;20038;-81
2022/12/09 09:39:02;;;;;;;42.37;17.97;;;;;;;;;;4986801;28;20041;-81
2022/12/09 09:41:46;;;;;;;43.53;19.40;;;;;;;;;;4987570;28;20493;-82
2022/12/09 09:44:18;;;;;;;37.67;17.73;;;;;;;;;;4972224;28;20046;-81
2022/12/09 09:46:46;;;;;;;46.42;19.63;;;;;;;;;;4968478;28;20351;-81
2022/12/09 09:49:27;;;;;;;41.10;16.70;;;;;;;;;;4969068;28;20034;-81
2022/12/09 09:51:53;;;;;;;41.73;19.37;;;;;;;;;;4952490;28;20474;-82
2022/12/09 09:54:19;;;;;;;46.50;18.10;;;;;;;;;;4966974;28;20213;-82
2022/12/09 09:57:04;;;;;;;55.00;18.70;;;;;;;;;;4986950;28;20113;-81
2022/12/09 09:59:41;;;;;;;38.63;18.37;;;;;;;;;;4987442;28;20047;-83
2022/12/09 10:02:10;;;;;;;51.40;20.63;;;;;;;;;;4970790;28;20077;-83
2022/12/09 10:04:48;;;;;;;44.03;18.53;;;;;;;;;;4969305;28;20031;-83
2022/12/09 10:07:35;;;;;;;47.30;19.03;;;;;;;;;;4968877;28;20478;-83
2022/12/09 10:10:30;;;;;;;44.87;20.23;;;;;;;;;;4972604;28;20050;-82
2022/12/09 10:13:23;;;;;;;40.57;18.70;;;;;;;;;;4963741;28;20442;-83
2022/12/09 10:16:07;;;;;;;58.50;20.50;;;;;;;;;;4970772;28;20371;-81
2022/12/09 10:18:59;;;;;;;50.20;20.53;;;;;;;;;;4973323;28;20470;-84
2022/12/09 10:21:28;;;;;;;39.58;19.75;;;;;;;;;;4961415;28;20502;-84
2022/12/09 10:23:55;;;;;;;48.50;19.53;;;;;;;;;;4974088;28;20087;-82
2022/12/09 10:26:30;;;;;;;47.90;19.47;;;;;;;;;;4992935;28;20486;-82
2022/12/09 10:29:22;;;;;;;46.07;17.93;;;;;;;;;;4976586;28;20495;-84
2022/12/09 10:31:48;;;;;;;42.72;19.00;;;;;;;;;;4992549;28;20522;-84
2022/12/09 10:34:13;;;;;;;44.10;18.30;;;;;;;;;;4977766;28;20124;-84
2022/12/09 10:36:44;;;;;;;46.37;20.53;;;;;;;;;;4991408;28;20110;-86
2022/12/09 10:39:19;;;;;;;46.47;20.13;;;;;;;;;;4977733;28;20031;-83
2022/12/09 10:44:34;;;;;;;39.03;20.20;;;;;;;;;;4975340;28;20445;-84
2022/12/09 10:47:03;;;;;;;50.83;20.37;;;;;;;;;;4991138;28;20026;-84
2022/12/09 10:49:30;;;;;;;44.13;18.10;;;;;;;;;;4979400;28;20053;-87
2022/12/09 10:51:57;;;;;;;37.03;17.60;;;;;;;;;;4977120;28;20023;-84
2022/12/09 10:54:34;;;;;;;46.57;19.93;;;;;;;;;;4977849;28;20038;-84
2022/12/09 10:57:15;;;;;;;42.57;18.43;;;;;;;;;;4977962;28;20606;-86
2022/12/09 10:59:54;;;;;;;40.67;17.43;;;;;;;;;;4964121;28;20018;-85
2022/12/09 11:02:21;;;;;;;48.20;18.37;;;;;;;;;;4976380;28;20019;-85
2022/12/09 11:04:47;;;;;;;35.50;17.17;;;;;;;;;;4976477;28;20038;-82
2022/12/09 11:07:23;;;;;;;36.33;16.20;;;;;;;;;;4977863;28;20414;-85
2022/12/09 11:09:56;;;;;;;40.67;18.97;;;;;;;;;;4994161;28;20304;-84
2022/12/09 11:12:27;;;;;;;33.13;17.60;;;;;;;;;;4975905;28;20031;-86
2022/12/09 11:15:03;;;;;;;41.80;18.08;;;;;;;;;;4973192;28;20138;-84
2022/12/09 11:17:38;;;;;;;43.37;18.93;;;;;;;;;;4959577;28;20019;-85
2022/12/09 11:20:04;;;;;;;49.30;19.47;;;;;;;;;;4976294;28;20445;-85
2022/12/09 11:22:41;;;;;;;40.90;19.13;;;;;;;;;;4980854;28;20125;-86
2022/12/09 11:25:10;;;;;;;46.77;22.63;;;;;;;;;;4980866;28;20074;-83
2022/12/09 11:27:40;;;;;;;42.43;21.07;;;;;;;;;;4995946;28;20035;-84
2022/12/09 11:30:13;;;;;;;46.17;22.33;;;;;;;;;;4978729;28;20085;-83
2022/12/09 11:32:53;;;;;;;62.10;25.90;;;;;;;;;;4980462;28;20033;-85
2022/12/09 11:35:25;;;;;;;45.43;19.73;;;;;;;;;;4980812;28;20042;-82
2022/12/09 11:37:51;;;;;;;39.27;19.07;;;;;;;;;;4978277;28;20026;-82
2022/12/09 11:40:18;;;;;;;45.97;20.43;;;;;;;;;;4993162;28;20405;-83
2022/12/09 11:42:55;;;;;;;42.47;20.60;;;;;;;;;;4977494;28;20058;-84
2022/12/09 11:45:27;;;;;;;47.87;20.67;;;;;;;;;;4974721;28;20031;-85
2022/12/09 11:48:02;;;;;;;48.93;19.97;;;;;;;;;;4965780;28;20034;-86
2022/12/09 11:50:31;;;;;;;51.30;19.50;;;;;;;;;;4977722;28;20135;-82
2022/12/09 11:53:11;;;;;;;38.70;19.07;;;;;;;;;;4979670;28;20158;-84
2022/12/09 11:55:44;;;;;;;42.67;19.90;;;;;;;;;;4970341;28;20021;-82
2022/12/09 11:58:15;;;;;;;43.60;19.67;;;;;;;;;;4978806;28;20327;-84
2022/12/09 12:00:49;;;;;;;50.75;19.85;;;;;;;;;;4971041;28;20573;-85
2022/12/09 12:03:21;;;;;;;48.57;19.47;;;;;;;;;;4972263;28;20027;-84
2022/12/09 12:05:53;;;;;;;47.80;18.80;;;;;;;;;;4973405;28;20109;-81
2022/12/09 12:08:29;;;;;;;41.57;17.10;;;;;;;;;;4978924;28;20438;-82
2022/12/09 12:11:07;;;;;;;52.50;20.27;;;;;;;;;;4976950;28;20050;-81
2022/12/09 12:13:44;;;;;;;51.27;19.37;;;;;;;;;;4976599;28;20037;-84
2022/12/09 12:16:32;;;;;;;40.70;18.57;;;;;;;;;;4964220;28;20050;-83
2022/12/09 12:19:34;;;;;;;40.47;17.13;;;;;;;;;;4989352;28;20054;-80
2022/12/09 12:22:40;;;;;;;41.10;18.67;;;;;;;;;;4962215;28;20050;-83
2022/12/09 12:25:41;;;;;;;54.40;18.70;;;;;;;;;;4979507;28;20295;-81
2022/12/09 12:28:53;;;;;;;42.00;18.13;;;;;;;;;;4958524;28;20126;-84
2022/12/09 12:31:31;;;;;;;49.10;18.45;;;;;;;;;;4967777;28;20031;-82
2022/12/09 12:34:10;;;;;;;45.43;21.20;;;;;;;;;;4973501;28;20319;-84
2022/12/09 12:36:57;;;;;;;43.87;18.03;;;;;;;;;;4974055;28;20049;-86
2022/12/09 12:39:41;;;;;;;39.27;17.87;;;;;;;;;;4967836;28;20030;-83
2022/12/09 12:42:28;;;;;;;53.30;19.20;;;;;;;;;;4988574;28;20031;-83
2022/12/09 12:47:59;;;;;;;49.27;20.33;;;;;;;;;;4970307;28;20049;-84
2022/12/09 12:50:44;;;;;;;45.07;19.00;;;;;;;;;;4974657;28;20486;-83
2022/12/09 12:53:25;;;;;;;45.63;18.70;;;;;;;;;;4970318;28;20058;-85
2022/12/09 12:56:12;;;;;;;42.77;19.40;;;;;;;;;;4973493;28;20082;-86
2022/12/09 12:58:59;;;;;;;47.50;18.83;;;;;;;;;;4971092;28;20057;-83
2022/12/09 13:01:46;;;;;;;44.43;19.03;;;;;;;;;;4966065;28;20110;-84
2022/12/09 13:04:23;;;;;;;43.27;17.50;;;;;;;;;;4966745;28;20088;-83
2022/12/09 13:07:00;;;;;;;47.90;19.20;;;;;;;;;;4973706;28;20026;-85
2022/12/09 13:09:58;;;;;;;44.50;17.73;;;;;;;;;;4972548;28;20118;-83
2022/12/09 13:13:00;;;;;;;58.50;20.63;;;;;;;;;;4955049;29;20442;-84
2022/12/09 13:15:35;;;;;;;41.77;19.57;;;;;;;;;;4972715;28;20061;-82
2022/12/09 13:18:25;;;;;;;50.30;20.23;;;;;;;;;;4975559;28;20546;-81
2022/12/09 13:20:56;;;;;;;40.03;17.57;;;;;;;;;;4988925;28;20070;-83
2022/12/09 13:23:22;;;;;;;50.00;17.60;;;;;;;;;;4972331;28;20037;-84
2022/12/09 13:26:24;;;;;;;43.83;18.20;;;;;;;;;;4988587;28;20027;-84
2022/12/09 13:29:09;;;;;;;;;;;;;;;;;;4987646;28;20038;-85
2022/12/09 13:31:41;;;;;;;46.63;18.23;;;;;;;;;;4974554;28;19913;-83
2022/12/09 13:34:28;;;;;;;49.47;18.20;;;;;;;;;;4975085;28;20039;-86
2022/12/09 13:36:54;;;;;;;49.13;19.23;;;;;;;;;;4972155;28;20023;-83
2022/12/09 13:39:38;;;;;;;44.60;19.70;;;;;;;;;;4972975;28;20038;-82
2022/12/09 13:45:35;;;;;;;50.53;20.07;;;;;;;;;;4972729;28;20459;-83
2022/12/09 13:48:30;;;;;;;47.20;18.77;;;;;;;;;;4971088;28;20069;-83
2022/12/09 13:50:58;;;;;;;50.43;19.63;;;;;;;;;;4954893;29;20057;-85
2022/12/09 13:53:55;;;;;;;47.43;20.80;;;;;;;;;;4974870;28;20034;-84
2022/12/09 13:56:28;;;;;;;57.37;21.67;;;;;;;;;;4974958;28;20517;-84
2022/12/09 13:59:09;;;;;;;57.23;20.53;;;;;;;;;;4959766;28;20030;-86
2022/12/09 14:01:47;;;;;;;48.07;22.07;;;;;;;;;;4962924;28;20039;-85
2022/12/09 14:04:24;;;;;;;58.07;22.67;;;;;;;;;;4976409;28;20117;-84
2022/12/09 14:07:09;;;;;;;45.07;21.00;;;;;;;;;;5008038;28;20062;-86
2022/12/09 14:09:52;;;;;;;62.53;23.53;;;;;;;;;;4972624;28;20137;-85
2022/12/09 14:12:25;;;;;;;53.23;21.90;;;;;;;;;;4977683;28;20041;-85
2022/12/09 14:14:55;;;;;;;;;;;;;;;;;;4977836;28;20054;-85
2022/12/09 14:17:30;;;;;;;50.73;20.87;;;;;;;;;;4991510;28;19921;-84
2022/12/09 14:19:56;;;;;;;55.50;22.27;;;;;;;;;;4970662;28;20058;-85
2022/12/09 14:22:22;;;;;;;56.50;24.83;;;;;;;;;;4970078;28;20447;-87
2022/12/09 14:25:08;;;;;;;57.27;22.33;;;;;;;;;;4979395;28;20066;-84
2022/12/09 14:27:34;;;;;;;50.97;21.73;;;;;;;;;;4979046;28;20038;-85
2022/12/09 14:30:22;;;;;;;49.77;22.87;;;;;;;;;;4965458;28;20037;-86
2022/12/09 14:32:48;;;;;;;57.27;21.30;;;;;;;;;;4976820;28;20453;-84
2022/12/09 14:35:17;;;;;;;45.97;21.53;;;;;;;;;;4977345;28;20144;-85
2022/12/09 14:38:17;;;;;;;54.37;20.43;;;;;;;;;;4981213;28;20027;-85
2022/12/09 14:40:50;;;;;;;47.60;20.43;;;;;;;;;;4957532;29;20063;-86
2022/12/09 14:43:46;;;;;;;49.33;21.17;;;;;;;;;;4975766;28;20041;-84
2022/12/09 14:46:31;;;;;;;50.53;18.57;;;;;;;;;;4983506;28;20101;-86
2022/12/09 14:49:15;;;;;;;56.80;21.47;;;;;;;;;;4971616;28;20542;-88